Weather at Belgrade Nikola Tesla Airport

Public forecast

Using degrees Celsius for public forecast. Weather courtesy of forecast.io.

Current aviation weather report (METAR) for Belgrade Nikola Tesla Airport

2022/11/30 11:00 (retrieved 26 minutes ago)

LYBE 301100Z 10016KT 9999 FEW017 07/02 Q1020 NOSIG

Aviation forecast (TAF) for Belgrade Nikola Tesla Airport

2022/11/30 06:21 (retrieved 5 hours ago)

TAF LYBE 300500Z 3006/0106 09014KT 9999 SCT020 BKN045 TX08/3012Z TN03/0106Z TEMPO 3006/3015 11016G26KT